Lucas Vestergaard

Olheiro-Chefe - Viborg
3 Abr 2027
Sábado
Processo

Personalidade

Adaptabilidade (18) Ambição (6) Controvérsia (8) Lealdade (3) Pressão (9) Profissionalismo (15) Espírito Esportivo (5) Temperamento (19)

Perfil

Estilo de Treinamento Democrático
Licença Continental C
Determinação 4
Gestão de Pessoas 12
Motivação 12
Disciplina 8
Satisfação no Trabalho
62%
Fadiga
0%
Função Olheiro-Chefe
Salário 22.8K p/s
Contrato 14.03.2029

Desempenho

Comportamento Bom
Eficácia do Treinamento
29%
Desenvolvimento do Jogador
20%
Prevenção de Lesões
30%
Implementação Tática
45%

Eventos Recentes

Participou de uma reunião de recrutamento 14d atrás
Aniversário 21d atrás
Participou de uma reunião de recrutamento 21d atrás
Participou de uma reunião de recrutamento 28d atrás
Participou de uma reunião de recrutamento 35d atrás
Participou de uma reunião de recrutamento 42d atrás
Participou de uma reunião de recrutamento 49d atrás
Participou de uma reunião de recrutamento 56d atrás

Monitorando agora

110
Jogador Clube Status Habilidade Confiança Observado Última observação Último voto
Kenay Myrie FC Copenhagen Rejeitado 90 / 101 69% 1 25.01.2027 Rejeitar
Ciprian Coman Pandurii Rejeitado 114 / 125 66% 1 01.01.2027 Rejeitar
Aljoša Matko Ujpest Rejeitado 117 / 117 66% 1 01.01.2027 Rejeitar
Vitalii Dakhnovskyi Bukovyna Ativo 98 / 101 40% 2 31.12.2026 -
Mauro Rodrigues Botev Plovdiv Ativo 101 / 105 40% 2 31.12.2026 -
Alexandr Sojka Viktoria Plzen Ativo 113 / 129 40% 1 31.12.2026 -
Mfundo Vilakazi Kaizer Chiefs Ativo 115 / 111 40% 5 30.12.2026 -
Alexander Lyng SonderjyskE Ativo 107 / 119 40% 3 30.12.2026 -
Sayfallah Ltaief Cracovia Ativo 122 / 121 40% 1 30.12.2026 -
Mduduzi Shabalala Kaizer Chiefs Ativo 101 / 107 40% 5 29.12.2026 -
Angelo Gattermayer Wolfsberger AC Ativo 130 / 126 40% 7 29.12.2026 -
José Martínes CSKA 1948 Ativo 118 / 105 40% 1 29.12.2026 -
Jack Currie Oxford United Ativo 119 / 119 40% 3 28.12.2026 -
Denil Castillo FC Midtjylland Ativo 120 / 131 40% 2 28.12.2026 -
Danyil Alefirenko Chornomorets Ativo 112 / 108 40% 1 28.12.2026 -
Kevin Yakob AGF Ativo 116 / 122 40% 8 27.12.2026 -
Nikolas Dyhr Randers Ativo 115 / 121 40% 3 27.12.2026 -
Diego Valencia Gornik Leczna Ativo 115 / 107 40% 2 27.12.2026 -
Peter Federico Gornik Zabrze Ativo 136 / 120 40% 5 26.12.2026 -
Edward Chilufya FC Midtjylland Ativo 123 / 119 40% 4 26.12.2026 -
Juan Pablo Gallego Fehervar Ativo 117 / 103 40% 2 26.12.2026 -
Akinkunmi Amoo Ismaily Rejeitado 129 / 113 40% 9 25.12.2026 Rejeitar
Ben Wiles Milton Keynes Dons Ativo 112 / 108 40% 1 22.12.2026 -
Armando Dobra Chesterfield Ativo 110 / 106 40% 1 22.12.2026 -
Teboho Tau Ajax Cape Town Ativo 104 / 120 40% 2 20.12.2026 -
David Buchta Radnicki 1923 Ativo 121 / 120 40% 1 20.12.2026 -
Michal Kohút Banik Ostrava Ativo 127 / 132 40% 1 19.12.2026 -
Kyreece Lisbie Colchester United Ativo 117 / 109 40% 2 17.12.2026 -
Noah Ganaus OB Rejeitado 122 / 107 40% 5 17.12.2026 Rejeitar
Robert Petkovic Zadar Ativo 124 / 121 40% 2 16.12.2026 -
Ismahila Ouédraogo OB Ativo 115 / 123 40% 3 16.12.2026 -
Martins Júnior Zira Ativo 112 / 108 40% 1 16.12.2026 -
Adam Sørensen OB Ativo 116 / 120 40% 3 13.12.2026 -
Sinoxolo Kwayiba Chippa United Ativo 122 / 116 40% 1 11.12.2026 -
Kornelius Hansen Aalborg Ativo 107 / 107 40% 1 11.12.2026 -
Keagan Hlatshwayo SuperSport United Ativo 129 / 118 40% 3 09.12.2026 -
Lukáš Červ Viktoria Plzen Ativo 129 / 131 40% 3 09.12.2026 -
Alejandro Organista Puebla Ativo 118 / 102 40% 1 08.12.2026 -
Ronaldo Vásquez Sumgayit Ativo 128 / 109 40% 1 08.12.2026 -
Charlie Webster Burton Albion Ativo 113 / 117 40% 2 07.12.2026 -
Luis Palma Lech Ativo 129 / 125 40% 2 06.12.2026 -
Lukas Klitten Hobro Ativo 95 / 106 40% 2 06.12.2026 -
Brian Figueroa Morelia Ativo 100 / 109 40% 3 04.12.2026 -
Bjarne Pudel Aalborg Ativo 108 / 106 40% 2 03.12.2026 -
Andile Zungu Platinum Stars Ativo 97 / 104 40% 1 03.12.2026 -
Ibrahim Tarek Masr El Makasa Ativo 118 / 117 40% 2 30.11.2026 -
Aarón Molinas Defensa y Justicia Ativo 126 / 127 40% 1 29.11.2026 -
Alejo Dramisino Honved Ativo 131 / 109 40% 1 27.11.2026 -
Daniel Kyerewaa Reading Ativo 115 / 111 40% 2 26.11.2026 -
Agustín Ramírez Inter Ativo 97 / 111 40% 2 26.11.2026 -
Tornike Morchiladze HNK Rijeka Ativo 117 / 114 40% 1 26.11.2026 -
Pedro Bravo FC Midtjylland Ativo 113 / 123 40% 3 25.11.2026 -
Kristian Arnstad AGF Ativo 132 / 128 40% 4 24.11.2026 -
Jens Petter Hauge Bodo/Glimt Ativo 141 / 133 40% 2 23.11.2026 -
Tomás O'Connor Gimnasia y Esgrima Ativo 110 / 127 40% 2 23.11.2026 -
Ronaldo Maarman University of Pretoria Ativo 101 / 100 40% 2 21.11.2026 -
Juan Bezerra Zamalek Rejeitado 123 / 114 40% 1 20.11.2026 Mais informações
Andrei Cordea CFR Cluj Ativo 111 / 125 40% 4 19.11.2026 -
Conrad Wallem Valerenga Ativo 133 / 124 40% 1 19.11.2026 -
Valdemar Byskov FC Midtjylland Ativo 107 / 122 40% 4 17.11.2026 -
Franko Kovačević Ferencvaros Ativo 127 / 120 40% 2 17.11.2026 -
Kamogelo Sebelebele Orlando Pirates Ativo 118 / 123 40% 1 15.11.2026 -
Victor Bak FC Midtjylland Ativo 117 / 131 40% 1 15.11.2026 -
Justin Janssen FC Nordsjaelland Rejeitado 107 / 118 40% 2 13.11.2026 Mais informações
Carlos Gutiérrez Montana Ativo 103 / 105 40% 1 13.11.2026 -
Håkon Evjen Bodo/Glimt Ativo 136 / 133 40% 1 12.11.2026 -
Mads Frøkjær Brondby Ativo 126 / 118 40% 3 10.11.2026 -
Razvan Puscas Astra Rejeitado 128 / 118 40% 1 08.11.2026 Mais informações
Rasmus Carstensen AGF Ativo 124 / 127 40% 1 07.11.2026 -
Siyanda Ndlovu Hearts of Oak Ativo 112 / 113 40% 1 07.11.2026 -
Emil Ceïde Rosenborg Ativo 117 / 128 40% 1 06.11.2026 -
Marko Brest Olimpija Ljubljana Ativo 119 / 109 40% 1 06.11.2026 -
Erick Ngcobo Black Aces Ativo 94 / 108 40% 3 04.11.2026 -
Gift Zwane Platinum Stars Ativo 102 / 116 40% 1 04.11.2026 -
Juho Lähteenmäki FC Nordsjaelland Ativo 111 / 130 40% 1 31.10.2026 -
Filip Bundgaard Brondby Ativo 114 / 118 40% 1 27.10.2026 -
Dominik Marczuk Real Salt Lake Ativo 124 / 117 40% 1 27.10.2026 -
Ole-Didrik Blomberg Bodo/Glimt Ativo 125 / 124 40% 1 26.10.2026 -
Ali Soliman Masr El Makasa Ativo 127 / 125 40% 2 25.10.2026 -
Dimitar Mitrovski Olimpija Ljubljana Ativo 125 / 109 40% 1 24.10.2026 -
Magnus Mattsson FC Copenhagen Ativo 130 / 132 40% 1 21.10.2026 -
Kelvin John Aalborg Ativo 102 / 111 40% 1 21.10.2026 Mais informações
Josip Mitrović Slaven Belupo Ativo 123 / 120 40% 1 18.10.2026 -
Villum Berthelsen FC Nordsjaelland Ativo 109 / 121 40% 1 13.10.2026 -
Tshepang Moremi Orlando Pirates Ativo 105 / 117 40% 1 12.10.2026 -
Kristoffer Velde Portland Timbers Ativo 118 / 114 40% 1 09.10.2026 -
Elías Báez Atlanta United FC Ativo 110 / 128 40% 1 08.10.2026 -
Jonathan Cañete Portuguesa Ativo 113 / 115 40% 2 21.08.2026 -
Brandon Vázquez Austin FC Ativo 109 / 121 40% 1 21.08.2026 -
José Barreto Fehervar Ativo 104 / 106 40% 1 20.08.2026 -
Janni Serra AGF Ativo 116 / 112 40% 1 19.08.2026 -
Rhian Brewster Derby County Ativo 111 / 125 40% 1 19.08.2026 -
Harold Santiago Mosquera Cerro Porteno Ativo 108 / 126 40% 1 19.08.2026 -
Marcelo Torres Gimnasia La Plata Ativo 119 / 120 40% 2 18.08.2026 -
Viktor Claesson FC Copenhagen Ativo 130 / 116 40% 1 18.08.2026 -
Derrick Etienne Jr. Toronto FC Ativo 101 / 113 40% 1 18.08.2026 -
Lirim Qamili SonderjyskE Ativo 111 / 105 40% 1 17.08.2026 -
Carles Gil New England Revolution Ativo 129 / 141 40% 1 17.08.2026 -
Denis Bouanga Los Angeles Football Club Ativo 121 / 137 40% 1 16.08.2026 -
Antoine Griezmann Orlando City Ativo 158 / 155 40% 1 16.08.2026 -
Eric Ramírez Carabobo Ativo 109 / 110 40% 1 14.08.2026 -
Ibrahim Aliyu Houston Dynamo Ativo 130 / 112 40% 1 14.08.2026 -
Matthew Hoppe SonderjyskE Ativo 114 / 118 40% 1 14.08.2026 -
Ramiro Ruiz Rodríguez Atlético Tucumán Ativo 111 / 117 40% 1 12.08.2026 -
Themba Manyama Ajax Cape Town Ativo 113 / 111 40% 1 06.08.2026 -
Michael Hoyos Ativo 140 / 137 40% 1 06.08.2026 -
Adalberto Peñaranda Deportivo Tachira Ativo 123 / 109 40% 1 04.08.2026 -
Alex Valera Universitario Ativo 119 / 120 40% 1 04.08.2026 -
Edwuin Cetré Estudiantes Ativo 114 / 115 40% 1 01.08.2026 -
Peter Shalulile Mamelodi Sundowns Ativo 129 / 121 40% 1 01.08.2026 -